createdAt,value
2022-08-23T00:00:55.244Z,2.30
2022-08-23T00:01:55.119Z,2.10
2022-08-23T00:02:55.166Z,2.20
2022-08-23T00:03:55.086Z,2.50
2022-08-23T00:05:09.382Z,2.30
2022-08-23T00:05:56.157Z,2.30
2022-08-23T00:06:55.053Z,2.10
2022-08-23T00:07:55.123Z,2.80
2022-08-23T00:08:55.016Z,2.30
2022-08-23T00:09:55.018Z,2.50
2022-08-23T00:10:54.986Z,2.40
2022-08-23T00:11:55.067Z,2.40
2022-08-23T00:12:54.986Z,2.50
2022-08-23T00:13:55.007Z,2.40
2022-08-23T00:14:54.970Z,2.80
2022-08-23T00:15:54.941Z,2.60
2022-08-23T00:16:55.018Z,2.40
2022-08-23T00:17:54.961Z,2.30
2022-08-23T00:18:54.919Z,3.00
2022-08-23T00:19:54.932Z,2.70
2022-08-23T00:20:54.880Z,2.70
2022-08-23T00:21:54.936Z,2.40
2022-08-23T00:22:54.859Z,2.70
2022-08-23T00:23:54.835Z,2.40
2022-08-23T00:24:54.837Z,2.60
2022-08-23T00:25:54.881Z,2.80
2022-08-23T00:26:54.875Z,2.50
2022-08-23T00:27:54.845Z,2.80
2022-08-23T00:28:54.799Z,2.80
2022-08-23T00:29:54.779Z,2.50
2022-08-23T00:30:54.767Z,2.40
2022-08-23T00:31:54.832Z,2.60
2022-08-23T00:32:57.935Z,2.90
2022-08-23T00:33:54.737Z,2.70
2022-08-23T00:34:54.735Z,2.50
2022-08-23T00:35:54.720Z,2.50
2022-08-23T00:36:54.779Z,2.40
2022-08-23T00:38:32.856Z,2.80
2022-08-23T00:38:55.763Z,2.70
2022-08-23T00:39:54.675Z,2.70
2022-08-23T00:40:54.675Z,2.50
2022-08-23T00:41:54.640Z,2.70
2022-08-23T00:42:54.689Z,2.70
2022-08-23T00:43:54.625Z,2.40
2022-08-23T00:44:54.633Z,2.60
2022-08-23T00:45:54.633Z,2.50
2022-08-23T00:46:54.616Z,3.00
2022-08-23T00:47:54.552Z,2.60
2022-08-23T00:48:54.627Z,2.40
2022-08-23T00:49:54.536Z,2.30
2022-08-23T00:50:54.604Z,2.60
2022-08-23T00:51:54.526Z,2.50
2022-08-23T00:52:54.553Z,2.50
2022-08-23T00:53:54.509Z,2.60
2022-08-23T00:54:54.494Z,2.20
2022-08-23T00:55:54.485Z,2.50
2022-08-23T00:56:54.479Z,2.80
2022-08-23T00:57:54.725Z,2.50
2022-08-23T00:58:54.442Z,2.10
2022-08-23T00:59:54.439Z,2.30
2022-08-23T01:00:54.422Z,2.50
2022-08-23T01:01:54.511Z,2.20
2022-08-23T01:02:54.468Z,2.60
2022-08-23T01:03:57.138Z,2.30
2022-08-23T01:04:55.424Z,2.40
2022-08-23T01:05:54.365Z,2.40
2022-08-23T01:06:54.344Z,2.50
2022-08-23T01:07:54.559Z,2.30
2022-08-23T01:08:54.327Z,2.60
2022-08-23T01:09:54.413Z,2.10
2022-08-23T01:10:54.327Z,2.40
2022-08-23T01:11:54.366Z,2.60
2022-08-23T01:12:54.367Z,2.30
2022-08-23T01:13:54.268Z,2.10
2022-08-23T01:14:54.272Z,2.00
2022-08-23T01:15:54.227Z,2.50
2022-08-23T01:16:54.239Z,2.20
2022-08-23T01:17:54.223Z,2.10
2022-08-23T01:18:54.272Z,2.20
2022-08-23T01:19:54.197Z,2.40
2022-08-23T01:20:54.218Z,2.40
2022-08-23T01:21:54.344Z,2.30
2022-08-23T01:22:54.147Z,2.40
2022-08-23T01:23:54.206Z,2.50
2022-08-23T01:25:07.785Z,2.50
2022-08-23T01:25:55.140Z,2.50
2022-08-23T01:26:54.116Z,2.30
2022-08-23T01:27:54.131Z,2.30
2022-08-23T01:28:54.157Z,2.40
2022-08-23T01:29:54.095Z,2.20
2022-08-23T01:30:54.065Z,2.30
2022-08-23T01:31:54.079Z,2.40
2022-08-23T01:32:54.053Z,2.40
2022-08-23T01:33:54.115Z,2.40
2022-08-23T01:34:54.023Z,2.50
2022-08-23T01:35:54.103Z,2.30
2022-08-23T01:36:54.003Z,2.70
2022-08-23T01:37:54.067Z,2.30
2022-08-23T01:38:54.072Z,2.70
2022-08-23T01:39:54.056Z,2.40
2022-08-23T01:40:53.963Z,2.80
2022-08-23T01:41:53.994Z,2.60
2022-08-23T01:42:53.947Z,2.30
2022-08-23T01:43:54.010Z,2.60
2022-08-23T01:44:53.905Z,2.50
2022-08-23T01:45:53.908Z,2.30
2022-08-23T01:46:55.032Z,2.10
2022-08-23T01:47:53.998Z,2.30
2022-08-23T01:48:53.934Z,2.20
2022-08-23T01:49:53.856Z,2.30
2022-08-23T01:50:53.852Z,2.40
2022-08-23T01:51:53.842Z,2.10
2022-08-23T01:52:53.821Z,2.20
2022-08-23T01:53:53.935Z,2.60
2022-08-23T01:54:53.791Z,2.30
2022-08-23T01:55:53.787Z,2.30
2022-08-23T01:56:53.779Z,2.60
2022-08-23T01:57:53.765Z,2.10
2022-08-23T01:58:53.860Z,1.80
2022-08-23T01:59:53.774Z,2.50
2022-08-23T02:00:53.727Z,2.40
2022-08-23T02:01:53.878Z,2.00
2022-08-23T02:02:53.696Z,2.40
2022-08-23T02:04:00.757Z,2.10
2022-08-23T02:04:54.668Z,2.00
2022-08-23T02:05:53.670Z,2.10
2022-08-23T02:06:53.662Z,2.60
2022-08-23T02:07:53.704Z,2.00
2022-08-23T02:08:53.711Z,2.00
2022-08-23T02:09:53.625Z,2.40
2022-08-23T02:10:53.607Z,2.00
2022-08-23T02:11:53.608Z,2.20
2022-08-23T02:12:53.593Z,2.00
2022-08-23T02:13:53.674Z,2.10
2022-08-23T02:14:53.648Z,2.00
2022-08-23T02:15:53.539Z,2.20
2022-08-23T02:17:02.770Z,2.10
2022-08-23T02:17:54.628Z,2.60
2022-08-23T02:18:53.528Z,2.10
2022-08-23T02:19:53.578Z,1.80
2022-08-23T02:20:53.498Z,2.00
2022-08-23T02:21:53.533Z,2.30
2022-08-23T02:22:53.497Z,2.20
2022-08-23T02:23:53.529Z,2.20
2022-08-23T02:24:53.447Z,2.10
2022-08-23T02:25:53.443Z,2.00
2022-08-23T02:26:56.839Z,2.70
2022-08-23T02:27:53.410Z,2.30
2022-08-23T02:28:53.401Z,2.50
2022-08-23T02:29:53.483Z,2.10
2022-08-23T02:30:53.413Z,2.00
2022-08-23T02:31:53.433Z,2.50
2022-08-23T02:32:53.349Z,2.30
2022-08-23T02:33:53.444Z,2.30
2022-08-23T02:35:04.980Z,2.10
2022-08-23T02:35:54.333Z,2.30
2022-08-23T02:36:53.313Z,2.40
2022-08-23T02:37:53.301Z,2.50
2022-08-23T02:38:53.389Z,2.30
2022-08-23T02:39:53.399Z,2.30
2022-08-23T02:41:01.042Z,2.00
2022-08-23T02:41:54.256Z,2.00
2022-08-23T02:42:53.270Z,2.40
2022-08-23T02:43:53.229Z,2.20
2022-08-23T02:44:53.290Z,2.40
2022-08-23T02:45:53.209Z,2.20
2022-08-23T02:46:53.229Z,2.40
2022-08-23T02:47:53.175Z,2.30
2022-08-23T02:48:53.163Z,2.40
2022-08-23T02:49:53.225Z,2.20
2022-08-23T02:50:53.134Z,2.30
2022-08-23T02:51:53.153Z,2.10
2022-08-23T02:52:53.176Z,2.60
2022-08-23T02:53:53.097Z,2.20
2022-08-23T02:54:53.217Z,2.20
2022-08-23T02:55:54.093Z,2.20
2022-08-23T02:56:53.076Z,2.70
2022-08-23T02:57:53.158Z,2.30
2022-08-23T02:58:54.222Z,2.30
2022-08-23T02:59:53.053Z,2.40
2022-08-23T03:00:53.014Z,2.10
2022-08-23T03:01:53.047Z,2.10
2022-08-23T03:02:53.092Z,2.10
2022-08-23T03:03:53.001Z,2.20
2022-08-23T03:04:52.988Z,2.60
2022-08-23T03:05:53.065Z,2.30
2022-08-23T03:06:52.952Z,2.10
2022-08-23T03:07:53.022Z,2.40
2022-08-23T03:08:52.972Z,2.20
2022-08-23T03:09:52.952Z,2.10
2022-08-23T03:10:52.933Z,2.20
2022-08-23T03:11:52.916Z,2.30
2022-08-23T03:12:53.062Z,2.20
2022-08-23T03:13:52.883Z,2.30
2022-08-23T03:14:52.870Z,2.50
2022-08-23T03:15:52.888Z,2.40
2022-08-23T03:16:52.860Z,2.30
2022-08-23T03:17:52.906Z,2.20
2022-08-23T03:18:52.833Z,2.30
2022-08-23T03:19:52.823Z,2.50
2022-08-23T03:20:52.810Z,2.60
2022-08-23T03:21:52.776Z,2.50
2022-08-23T03:22:54.565Z,2.20
2022-08-23T03:23:52.752Z,2.70
2022-08-23T03:24:52.767Z,2.40
2022-08-23T03:25:52.744Z,2.50
2022-08-23T03:26:52.716Z,2.60
2022-08-23T03:27:52.779Z,2.50
2022-08-23T03:28:52.698Z,2.70
2022-08-23T03:29:52.688Z,2.40
2022-08-23T03:30:52.703Z,2.50
2022-08-23T03:31:53.955Z,2.80
2022-08-23T03:32:52.705Z,2.80
2022-08-23T03:33:52.646Z,2.90
2022-08-23T03:34:52.615Z,2.80
2022-08-23T03:35:52.645Z,2.40
2022-08-23T03:36:52.614Z,2.40
2022-08-23T03:37:55.231Z,2.80
2022-08-23T03:38:52.585Z,2.50
2022-08-23T03:39:52.628Z,2.90
2022-08-23T03:40:52.571Z,2.60
2022-08-23T03:41:52.571Z,2.70
2022-08-23T03:42:52.599Z,2.70
2022-08-23T03:43:52.542Z,2.60
2022-08-23T03:44:54.749Z,2.70
2022-08-23T03:45:53.530Z,2.50
2022-08-23T03:46:52.494Z,2.70
2022-08-23T03:47:52.552Z,2.80
2022-08-23T03:48:52.468Z,2.60
2022-08-23T03:49:52.488Z,2.50
2022-08-23T03:50:54.536Z,2.80
2022-08-23T03:51:52.425Z,3.60
2022-08-23T03:52:52.507Z,2.70
2022-08-23T03:53:52.431Z,2.90
2022-08-23T03:54:52.409Z,2.60
2022-08-23T03:55:52.377Z,2.90
2022-08-23T03:56:52.461Z,3.20
2022-08-23T03:57:52.446Z,2.80
2022-08-23T03:58:52.351Z,2.70
2022-08-23T03:59:52.345Z,2.80
2022-08-23T04:00:52.337Z,2.60
2022-08-23T04:01:52.387Z,2.90
2022-08-23T04:02:52.359Z,2.90
2022-08-23T04:03:52.310Z,2.80
2022-08-23T04:04:52.377Z,2.80
2022-08-23T04:05:52.281Z,2.50
2022-08-23T04:06:52.263Z,2.60
2022-08-23T04:07:52.334Z,2.60
2022-08-23T04:08:52.243Z,2.60
2022-08-23T04:09:55.123Z,3.00
2022-08-23T04:10:52.223Z,2.70
2022-08-23T04:11:52.202Z,3.10
2022-08-23T04:12:52.269Z,3.40
2022-08-23T04:13:52.243Z,2.80
2022-08-23T04:14:52.165Z,3.20
2022-08-23T04:15:52.179Z,2.80
2022-08-23T04:16:52.158Z,2.80
2022-08-23T04:17:52.137Z,2.80
2022-08-23T04:18:52.109Z,2.90
2022-08-23T04:19:52.139Z,3.10
2022-08-23T04:20:52.094Z,2.80
2022-08-23T04:21:52.079Z,3.20
2022-08-23T04:22:52.164Z,2.80
2022-08-23T04:23:52.054Z,3.00
2022-08-23T04:24:52.048Z,2.80
2022-08-23T04:25:52.036Z,2.90
2022-08-23T04:26:52.031Z,2.80
2022-08-23T04:27:52.184Z,2.90
2022-08-23T04:28:52.019Z,3.00
2022-08-23T04:29:51.994Z,2.80
2022-08-23T04:30:51.997Z,3.10
2022-08-23T04:31:51.994Z,2.90
2022-08-23T04:32:52.042Z,3.00
2022-08-23T04:33:52.402Z,3.30
2022-08-23T04:34:51.941Z,3.30
2022-08-23T04:35:51.920Z,3.20
2022-08-23T04:36:55.213Z,2.70
2022-08-23T04:37:51.979Z,2.90
2022-08-23T04:38:52.007Z,3.00
2022-08-23T04:39:51.961Z,3.00
2022-08-23T04:40:51.870Z,2.70
2022-08-23T04:41:51.857Z,3.20
2022-08-23T04:42:51.958Z,3.10
2022-08-23T04:43:51.828Z,3.20
2022-08-23T04:44:51.826Z,3.10
2022-08-23T04:45:51.813Z,3.00
2022-08-23T04:46:51.843Z,3.10
2022-08-23T04:47:51.794Z,3.10
2022-08-23T04:48:51.771Z,3.30
2022-08-23T04:49:51.763Z,3.00
2022-08-23T04:50:51.738Z,2.70
2022-08-23T04:51:52.960Z,3.20
2022-08-23T04:52:51.767Z,2.80
2022-08-23T04:53:51.710Z,2.80
2022-08-23T04:54:51.704Z,2.70
2022-08-23T04:55:51.698Z,3.10
2022-08-23T04:56:52.039Z,3.40
2022-08-23T04:57:52.297Z,3.10
2022-08-23T04:58:51.657Z,3.40
2022-08-23T04:59:51.643Z,4.00
2022-08-23T05:00:51.848Z,3.40
2022-08-23T05:01:51.615Z,3.50
2022-08-23T05:02:51.615Z,4.10
2022-08-23T05:03:51.598Z,4.00
2022-08-23T05:04:51.578Z,4.90
2022-08-23T05:05:51.569Z,4.50
2022-08-23T05:06:51.649Z,3.70
2022-08-23T05:07:51.684Z,3.20
2022-08-23T05:08:51.574Z,3.30
2022-08-23T05:09:51.530Z,3.80
2022-08-23T05:10:51.521Z,4.30
2022-08-23T05:11:51.517Z,3.80
2022-08-23T05:12:51.536Z,3.20
2022-08-23T05:13:51.473Z,2.90
2022-08-23T05:14:51.466Z,3.00
2022-08-23T05:15:51.452Z,3.60
2022-08-23T05:16:51.448Z,2.80
2022-08-23T05:17:51.440Z,3.00
2022-08-23T05:18:51.419Z,3.20
2022-08-23T05:19:51.403Z,2.80
2022-08-23T05:20:51.396Z,3.20
2022-08-23T05:21:56.346Z,2.90
2022-08-23T05:22:52.378Z,3.00
2022-08-23T05:23:54.702Z,3.50
2022-08-23T05:24:51.341Z,3.20
2022-08-23T05:25:53.200Z,3.10
2022-08-23T05:26:51.328Z,3.40
2022-08-23T05:27:51.331Z,3.10
2022-08-23T05:28:51.305Z,3.00
2022-08-23T05:29:51.290Z,2.80
2022-08-23T05:30:56.526Z,2.90
2022-08-23T05:31:52.268Z,3.00
2022-08-23T05:32:51.280Z,2.90
2022-08-23T05:33:51.245Z,2.90
2022-08-23T05:34:51.228Z,3.90
2022-08-23T05:35:51.224Z,3.70
2022-08-23T05:36:55.894Z,3.30
2022-08-23T05:37:51.258Z,3.20
2022-08-23T05:38:51.182Z,3.30
2022-08-23T05:39:51.209Z,3.30
2022-08-23T05:40:52.074Z,2.90
2022-08-23T05:41:51.151Z,3.00
2022-08-23T05:42:51.140Z,3.20
2022-08-23T05:43:51.145Z,3.30
2022-08-23T05:44:51.121Z,3.10
2022-08-23T05:45:51.106Z,3.50
2022-08-23T05:46:51.093Z,3.00
2022-08-23T05:47:51.100Z,3.10
2022-08-23T05:48:51.112Z,3.20
2022-08-23T05:49:51.059Z,2.90
2022-08-23T05:50:51.050Z,3.30
2022-08-23T05:51:51.570Z,2.90
2022-08-23T05:52:51.348Z,3.30
2022-08-23T05:53:51.015Z,3.10
2022-08-23T05:54:50.995Z,3.20
2022-08-23T05:55:50.991Z,2.80
2022-08-23T05:56:50.977Z,2.60
2022-08-23T05:57:50.985Z,3.00
2022-08-23T05:58:50.959Z,2.80
2022-08-23T05:59:50.938Z,3.00
2022-08-23T06:00:51.005Z,3.10
2022-08-23T06:01:50.919Z,2.80
2022-08-23T06:02:50.905Z,3.30
2022-08-23T06:03:50.913Z,3.20
2022-08-23T06:04:54.361Z,3.10
2022-08-23T06:05:51.876Z,3.10
2022-08-23T06:06:50.865Z,3.10
2022-08-23T06:07:50.848Z,2.90
2022-08-23T06:08:50.847Z,3.40
2022-08-23T06:09:50.824Z,3.00
2022-08-23T06:10:50.820Z,3.50
2022-08-23T06:11:50.800Z,3.60
2022-08-23T06:12:50.798Z,3.30
2022-08-23T06:13:50.921Z,3.40
2022-08-23T06:14:50.771Z,3.00
2022-08-23T06:15:50.758Z,3.10
2022-08-23T06:16:54.912Z,3.10
2022-08-23T06:17:50.736Z,3.40
2022-08-23T06:18:50.739Z,2.90
2022-08-23T06:19:50.711Z,2.90
2022-08-23T06:20:50.760Z,2.90
2022-08-23T06:21:50.679Z,3.00
2022-08-23T06:22:50.678Z,2.80
2022-08-23T06:23:50.685Z,3.10
2022-08-23T06:24:50.652Z,2.90
2022-08-23T06:25:50.639Z,3.00
2022-08-23T06:26:50.646Z,3.10
2022-08-23T06:27:50.637Z,2.90
2022-08-23T06:28:51.334Z,3.10
2022-08-23T06:29:50.599Z,2.60
2022-08-23T06:30:50.643Z,3.20
2022-08-23T06:31:50.574Z,3.30
2022-08-23T06:32:50.634Z,3.30
2022-08-23T06:33:50.611Z,3.20
2022-08-23T06:34:50.541Z,3.30
2022-08-23T06:35:51.526Z,2.80
2022-08-23T06:36:50.510Z,3.10
2022-08-23T06:37:50.513Z,3.00
2022-08-23T06:38:50.492Z,2.90
2022-08-23T06:39:50.522Z,2.80
2022-08-23T06:40:50.469Z,2.50
2022-08-23T06:41:50.457Z,3.20
2022-08-23T06:42:50.443Z,3.30
2022-08-23T06:43:50.448Z,2.30
2022-08-23T06:44:50.416Z,3.10
2022-08-23T06:45:58.153Z,3.10
2022-08-23T06:46:51.521Z,2.80
2022-08-23T06:47:50.383Z,3.00
2022-08-23T06:48:50.381Z,3.20
2022-08-23T06:49:55.466Z,2.90
2022-08-23T06:50:51.355Z,3.00
2022-08-23T06:51:50.337Z,3.00
2022-08-23T06:52:50.327Z,3.20
2022-08-23T06:53:50.329Z,2.80
2022-08-23T06:54:50.304Z,2.80
2022-08-23T06:55:50.295Z,3.00
2022-08-23T06:56:50.289Z,2.90
2022-08-23T06:57:50.270Z,3.10
2022-08-23T06:58:50.271Z,2.80
2022-08-23T06:59:50.243Z,2.60
2022-08-23T07:00:54.169Z,2.90
2022-08-23T07:01:51.349Z,2.70
2022-08-23T07:02:50.404Z,2.80
2022-08-23T07:03:50.215Z,3.00
2022-08-23T07:04:50.191Z,3.10
2022-08-23T07:05:50.179Z,2.90
2022-08-23T07:06:50.162Z,2.90
2022-08-23T07:07:50.163Z,2.80
2022-08-23T07:08:50.155Z,2.70
2022-08-23T07:09:50.130Z,2.50
2022-08-23T07:10:50.117Z,2.80
2022-08-23T07:11:50.110Z,2.90
2022-08-23T07:12:50.097Z,3.00
2022-08-23T07:13:50.106Z,3.20
2022-08-23T07:14:50.078Z,3.00
2022-08-23T07:15:50.363Z,2.50
2022-08-23T07:16:50.054Z,2.60
2022-08-23T07:17:50.044Z,2.40
2022-08-23T07:18:50.050Z,2.80
2022-08-23T07:19:50.012Z,3.20
2022-08-23T07:20:50.007Z,3.20
2022-08-23T07:21:49.996Z,2.80
2022-08-23T07:22:49.983Z,3.10
2022-08-23T07:23:49.984Z,2.70
2022-08-23T07:24:49.957Z,3.50
2022-08-23T07:25:49.946Z,2.90
2022-08-23T07:26:49.940Z,2.70
2022-08-23T07:27:49.929Z,3.80
2022-08-23T07:28:49.932Z,2.70
2022-08-23T07:29:49.904Z,2.80
2022-08-23T07:30:49.894Z,3.00
2022-08-23T07:31:49.995Z,2.60
2022-08-23T07:32:49.871Z,3.00
2022-08-23T07:33:49.876Z,5.80
2022-08-23T07:34:49.852Z,5.60
2022-08-23T07:35:49.833Z,4.20
2022-08-23T07:36:49.833Z,4.10
2022-08-23T07:37:49.814Z,3.20
2022-08-23T07:38:51.653Z,3.00
2022-08-23T07:39:49.805Z,3.00
2022-08-23T07:40:53.845Z,3.20
2022-08-23T07:41:49.762Z,2.80
2022-08-23T07:42:49.756Z,2.80
2022-08-23T07:43:49.760Z,2.80
2022-08-23T07:44:49.729Z,2.70
2022-08-23T07:45:49.718Z,2.80
2022-08-23T07:46:49.756Z,2.50
2022-08-23T07:47:50.582Z,2.40
2022-08-23T07:48:54.415Z,2.60
2022-08-23T07:49:50.679Z,2.70
2022-08-23T07:50:49.667Z,2.50
2022-08-23T07:51:50.658Z,2.50
2022-08-23T07:52:49.654Z,2.60
2022-08-23T07:53:49.646Z,2.90
2022-08-23T07:54:49.782Z,2.70
2022-08-23T07:55:49.607Z,3.00
2022-08-23T07:56:49.607Z,2.80
2022-08-23T07:57:49.588Z,2.40
2022-08-23T07:58:49.598Z,2.40
2022-08-23T07:59:49.573Z,2.10
2022-08-23T08:00:49.578Z,2.20
2022-08-23T08:01:49.608Z,2.50
2022-08-23T08:02:49.567Z,2.20
2022-08-23T08:03:49.519Z,2.50
2022-08-23T08:04:49.589Z,2.20
2022-08-23T08:05:49.518Z,2.00
2022-08-23T08:07:04.742Z,2.20
2022-08-23T08:07:50.490Z,2.10
2022-08-23T08:08:49.462Z,2.30
2022-08-23T08:09:49.523Z,2.20
2022-08-23T08:10:49.483Z,2.30
2022-08-23T08:11:49.441Z,2.30
2022-08-23T08:12:49.419Z,1.90
2022-08-23T08:13:49.411Z,2.40
2022-08-23T08:14:49.460Z,2.40
2022-08-23T08:15:49.465Z,2.60
2022-08-23T08:16:49.390Z,2.60
2022-08-23T08:17:49.382Z,2.50
2022-08-23T08:18:49.358Z,2.10
2022-08-23T08:19:49.408Z,2.40
2022-08-23T08:20:49.335Z,2.40
2022-08-23T08:21:49.328Z,2.80
2022-08-23T08:22:58.279Z,2.40
2022-08-23T08:23:50.297Z,2.40
2022-08-23T08:24:49.318Z,2.40
2022-08-23T08:25:49.275Z,2.50
2022-08-23T08:26:49.277Z,2.50
2022-08-23T08:27:49.278Z,2.30
2022-08-23T08:28:49.249Z,2.20
2022-08-23T08:29:49.278Z,2.20
2022-08-23T08:30:49.227Z,2.30
2022-08-23T08:31:53.602Z,2.20
2022-08-23T08:32:50.204Z,2.50
2022-08-23T08:33:49.204Z,3.10
2022-08-23T08:34:49.206Z,2.80
2022-08-23T08:35:57.763Z,2.50
2022-08-23T08:36:50.179Z,2.20
2022-08-23T08:37:49.136Z,2.50
2022-08-23T08:38:51.758Z,2.30
2022-08-23T08:39:49.211Z,2.40
2022-08-23T08:40:49.119Z,2.30
2022-08-23T08:41:49.103Z,2.20
2022-08-23T08:42:50.095Z,2.50
2022-08-23T08:43:49.087Z,1.90
2022-08-23T08:44:49.121Z,2.00
2022-08-23T08:45:57.590Z,2.40
2022-08-23T08:46:50.103Z,2.30
2022-08-23T08:47:49.041Z,1.90
2022-08-23T08:48:49.015Z,2.20
2022-08-23T08:49:49.075Z,2.00
2022-08-23T08:50:49.007Z,2.10
2022-08-23T08:51:48.987Z,2.40
2022-08-23T08:52:48.972Z,1.90
2022-08-23T08:53:48.969Z,2.20
2022-08-23T08:54:49.008Z,2.00
2022-08-23T08:55:48.933Z,2.40
2022-08-23T08:56:48.921Z,2.20
2022-08-23T08:57:48.923Z,2.20
2022-08-23T08:58:48.916Z,2.20
2022-08-23T08:59:48.961Z,2.70
2022-08-23T09:00:52.675Z,2.40
2022-08-23T09:01:49.960Z,2.30
2022-08-23T09:02:50.370Z,2.20
2022-08-23T09:03:48.846Z,1.90
2022-08-23T09:04:48.913Z,1.90
2022-08-23T09:05:48.821Z,2.00
2022-08-23T09:06:48.832Z,2.00
2022-08-23T09:07:48.802Z,2.30
2022-08-23T09:08:48.786Z,2.30
2022-08-23T09:09:48.838Z,2.20
2022-08-23T09:10:48.790Z,2.50
2022-08-23T09:11:48.758Z,2.10
2022-08-23T09:12:48.740Z,2.80
2022-08-23T09:13:48.734Z,3.20
2022-08-23T09:14:48.813Z,2.90
2022-08-23T09:15:48.748Z,1.90
2022-08-23T09:16:48.703Z,2.10
2022-08-23T09:17:48.700Z,2.30
2022-08-23T09:18:48.820Z,2.00
2022-08-23T09:19:48.680Z,2.00
2022-08-23T09:20:48.674Z,2.00
2022-08-23T09:21:48.647Z,1.80
2022-08-23T09:22:48.625Z,1.80
2022-08-23T09:23:48.630Z,1.90
2022-08-23T09:24:49.793Z,1.70
2022-08-23T09:25:48.628Z,2.00
2022-08-23T09:26:48.603Z,1.90
2022-08-23T09:27:48.575Z,2.10
2022-08-23T09:28:48.573Z,2.00
2022-08-23T09:29:48.549Z,1.80
2022-08-23T09:30:48.677Z,1.90
2022-08-23T09:31:48.665Z,2.10
2022-08-23T09:32:48.514Z,1.90
2022-08-23T09:33:48.506Z,2.20
2022-08-23T09:34:48.510Z,2.00
2022-08-23T09:35:48.518Z,2.10
2022-08-23T09:36:48.482Z,1.90
2022-08-23T09:37:48.460Z,1.90
2022-08-23T09:38:48.449Z,2.10
2022-08-23T09:39:48.508Z,2.30
2022-08-23T09:40:48.601Z,1.80
2022-08-23T09:41:48.411Z,1.80
2022-08-23T09:42:48.412Z,2.10
2022-08-23T09:43:48.396Z,1.90
2022-08-23T09:44:48.389Z,1.90
2022-08-23T09:45:48.441Z,2.20
2022-08-23T09:46:48.366Z,2.10
2022-08-23T09:47:48.342Z,2.20
2022-08-23T09:48:48.332Z,2.20
2022-08-23T09:49:48.333Z,1.90
2022-08-23T09:50:48.335Z,1.90
2022-08-23T09:51:48.297Z,2.10
2022-08-23T09:52:48.300Z,2.30
2022-08-23T09:53:48.275Z,2.00
2022-08-23T09:54:48.285Z,2.40
2022-08-23T09:55:48.307Z,2.10
2022-08-23T09:56:48.364Z,2.70
2022-08-23T09:57:48.230Z,2.40
2022-08-23T09:58:48.243Z,2.30
2022-08-23T09:59:48.215Z,2.30
2022-08-23T10:00:48.278Z,2.60
2022-08-23T10:01:48.246Z,2.70
2022-08-23T10:02:48.186Z,2.70
2022-08-23T10:03:48.171Z,2.40
2022-08-23T10:04:48.245Z,2.70
2022-08-23T10:05:48.212Z,2.40
2022-08-23T10:06:48.146Z,2.30
2022-08-23T10:07:48.124Z,3.00
2022-08-23T10:08:48.109Z,2.70
2022-08-23T10:09:48.122Z,2.70
2022-08-23T10:10:50.732Z,2.80
2022-08-23T10:11:48.077Z,2.30
2022-08-23T10:12:48.861Z,3.10
2022-08-23T10:13:48.065Z,3.20
2022-08-23T10:14:48.042Z,3.70
2022-08-23T10:15:48.077Z,3.30
2022-08-23T10:16:48.026Z,4.10
2022-08-23T10:17:48.011Z,3.30
2022-08-23T10:18:47.999Z,3.30
2022-08-23T10:19:48.013Z,3.30
2022-08-23T10:20:47.992Z,3.70
2022-08-23T10:21:47.965Z,4.20
2022-08-23T10:22:47.964Z,3.20
2022-08-23T10:23:47.965Z,2.80
2022-08-23T10:24:47.963Z,3.30
2022-08-23T10:25:47.939Z,3.60
2022-08-23T10:26:47.910Z,3.00
2022-08-23T10:27:47.896Z,3.80
2022-08-23T10:28:47.881Z,3.70
2022-08-23T10:29:47.945Z,2.80
2022-08-23T10:30:47.908Z,2.60
2022-08-23T10:31:47.865Z,2.60
2022-08-23T10:32:47.845Z,3.50
2022-08-23T10:33:47.829Z,2.90
2022-08-23T10:34:50.599Z,3.10
2022-08-23T10:35:47.818Z,3.60
2022-08-23T10:36:47.800Z,3.40
2022-08-23T10:37:47.778Z,2.80
2022-08-23T10:38:47.769Z,2.90
2022-08-23T10:39:47.815Z,2.80
2022-08-23T10:40:47.771Z,2.60
2022-08-23T10:41:47.735Z,2.60
2022-08-23T10:42:47.724Z,2.80
2022-08-23T10:43:47.715Z,2.80
2022-08-23T10:44:47.703Z,2.70
2022-08-23T10:45:47.707Z,3.10
2022-08-23T10:46:47.771Z,2.50
2022-08-23T10:47:47.667Z,2.40
2022-08-23T10:48:47.662Z,2.60
2022-08-23T10:49:47.649Z,2.60
2022-08-23T10:50:55.614Z,3.00
2022-08-23T10:51:48.623Z,2.50
2022-08-23T10:52:47.614Z,2.30
2022-08-23T10:53:47.598Z,2.10
2022-08-23T10:54:47.593Z,2.30
2022-08-23T10:55:47.605Z,2.30
2022-08-23T10:56:50.246Z,2.20
2022-08-23T10:57:47.565Z,2.10
2022-08-23T10:58:47.720Z,2.40
2022-08-23T10:59:47.534Z,2.60
2022-08-23T11:00:47.541Z,2.70
2022-08-23T11:01:47.636Z,1.90
2022-08-23T11:02:47.578Z,2.20
2022-08-23T11:03:47.485Z,2.20
2022-08-23T11:04:47.483Z,2.40
2022-08-23T11:05:47.480Z,1.90
2022-08-23T11:06:47.453Z,2.10
2022-08-23T11:07:47.443Z,1.90
2022-08-23T11:08:48.083Z,1.60
2022-08-23T11:09:47.425Z,1.90
2022-08-23T11:10:55.952Z,1.50
2022-08-23T11:11:48.396Z,1.90
2022-08-23T11:12:47.389Z,2.30
2022-08-23T11:13:47.399Z,1.90
2022-08-23T11:14:47.363Z,1.70
2022-08-23T11:15:47.441Z,1.80
2022-08-23T11:16:47.343Z,1.90
2022-08-23T11:17:47.332Z,2.10
2022-08-23T11:18:47.321Z,1.80
2022-08-23T11:19:47.303Z,2.00
2022-08-23T11:20:47.298Z,2.10
2022-08-23T11:21:47.300Z,1.90
2022-08-23T11:22:47.275Z,1.80
2022-08-23T11:23:47.265Z,1.50
2022-08-23T11:24:47.253Z,2.00
2022-08-23T11:25:47.249Z,2.20
2022-08-23T11:26:47.254Z,2.00
2022-08-23T11:27:47.232Z,1.80
2022-08-23T11:28:47.209Z,2.00
2022-08-23T11:29:47.205Z,2.20
2022-08-23T11:30:47.228Z,2.00
2022-08-23T11:31:47.190Z,2.10
2022-08-23T11:32:47.166Z,1.90
2022-08-23T11:33:47.158Z,1.90
2022-08-23T11:34:47.147Z,1.70
2022-08-23T11:35:47.131Z,2.10
2022-08-23T11:36:47.136Z,2.00
2022-08-23T11:37:47.110Z,1.90
2022-08-23T11:38:47.117Z,2.10
2022-08-23T11:39:47.139Z,2.00
2022-08-23T11:40:47.076Z,2.30
2022-08-23T11:41:47.084Z,2.00
2022-08-23T11:42:47.052Z,2.20
2022-08-23T11:43:47.053Z,2.20
2022-08-23T11:44:47.031Z,2.30
2022-08-23T11:45:47.088Z,2.30
2022-08-23T11:46:47.031Z,2.70
2022-08-23T11:47:46.996Z,2.60
2022-08-23T11:48:46.996Z,2.60
2022-08-23T11:49:46.976Z,2.40
2022-08-23T11:50:46.969Z,3.00
2022-08-23T11:51:46.963Z,2.70
2022-08-23T11:52:46.941Z,2.70
2022-08-23T11:53:46.934Z,2.80
2022-08-23T11:54:46.922Z,2.50
2022-08-23T11:55:46.909Z,2.50
2022-08-23T11:56:46.934Z,2.20
2022-08-23T11:57:46.891Z,2.40
2022-08-23T11:58:46.879Z,2.10
2022-08-23T11:59:46.868Z,2.20
2022-08-23T12:00:46.861Z,2.10
2022-08-23T12:01:47.284Z,2.10
2022-08-23T12:02:46.958Z,2.20
2022-08-23T12:03:46.944Z,2.00
2022-08-23T12:04:47.379Z,1.80
2022-08-23T12:05:46.795Z,2.10
2022-08-23T12:06:51.165Z,1.60
2022-08-23T12:07:46.784Z,1.80
2022-08-23T12:08:46.765Z,1.90
2022-08-23T12:09:46.755Z,2.10
2022-08-23T12:10:46.745Z,2.00
2022-08-23T12:11:46.755Z,1.60
2022-08-23T12:12:47.500Z,2.10
2022-08-23T12:13:46.719Z,2.10
2022-08-23T12:14:46.707Z,1.90
2022-08-23T12:15:46.731Z,1.60
2022-08-23T12:16:50.079Z,1.80
2022-08-23T12:17:46.681Z,1.70
2022-08-23T12:18:47.648Z,1.60
2022-08-23T12:19:46.652Z,1.60
2022-08-23T12:20:48.409Z,1.50
2022-08-23T12:21:46.639Z,1.60
2022-08-23T12:22:46.605Z,1.90
2022-08-23T12:23:47.922Z,1.40
2022-08-23T12:24:47.012Z,1.90
2022-08-23T12:25:46.573Z,1.60
2022-08-23T12:26:46.571Z,1.70
2022-08-23T12:27:46.567Z,1.80
2022-08-23T12:28:46.552Z,1.70
2022-08-23T12:29:46.525Z,1.60
2022-08-23T12:30:46.557Z,1.70
2022-08-23T12:31:46.548Z,1.60
2022-08-23T12:32:46.536Z,2.00
2022-08-23T12:33:46.520Z,2.30
2022-08-23T12:34:47.248Z,1.50
2022-08-23T12:35:46.480Z,1.50
2022-08-23T12:36:46.448Z,1.30
2022-08-23T12:37:46.449Z,1.60
2022-08-23T12:38:46.427Z,1.50
2022-08-23T12:39:46.458Z,1.40
2022-08-23T12:40:46.402Z,1.60
2022-08-23T12:41:46.394Z,1.40
2022-08-23T12:42:46.400Z,1.60
2022-08-23T12:43:46.387Z,1.40
2022-08-23T12:44:46.362Z,1.20
2022-08-23T12:45:46.346Z,1.20
2022-08-23T12:46:46.416Z,1.60
2022-08-23T12:47:46.348Z,1.30
2022-08-23T12:48:46.319Z,1.30
2022-08-23T12:49:46.304Z,1.40
2022-08-23T12:50:46.294Z,2.10
2022-08-23T12:51:46.278Z,1.60
2022-08-23T12:52:46.292Z,1.60
2022-08-23T12:53:46.266Z,1.60
2022-08-23T12:54:46.256Z,1.40
2022-08-23T12:55:46.243Z,1.70
2022-08-23T12:56:46.235Z,1.60
2022-08-23T12:57:46.245Z,1.40
2022-08-23T12:58:46.209Z,1.50
2022-08-23T12:59:46.194Z,1.70
2022-08-23T13:00:46.185Z,1.40
2022-08-23T13:01:46.237Z,1.70
2022-08-23T13:02:46.260Z,1.60
2022-08-23T13:03:46.154Z,1.30
2022-08-23T13:04:46.145Z,1.80
2022-08-23T13:05:46.316Z,1.90
2022-08-23T13:06:46.127Z,1.70
2022-08-23T13:07:46.121Z,1.50
2022-08-23T13:08:46.094Z,1.50
2022-08-23T13:09:53.465Z,1.70
2022-08-23T13:10:47.069Z,1.40
2022-08-23T13:11:46.070Z,1.50
2022-08-23T13:12:46.073Z,1.40
2022-08-23T13:13:46.037Z,1.50
2022-08-23T13:14:46.030Z,1.50
2022-08-23T13:15:46.109Z,2.00
2022-08-23T13:16:46.003Z,1.50
2022-08-23T13:17:46.008Z,1.70
2022-08-23T13:18:45.993Z,1.30